createdAt,value
2018-03-03T00:02:11.912Z,21.15
2018-03-03T00:04:38.747Z,19.85
2018-03-03T00:07:05.596Z,18.42
2018-03-03T00:09:32.735Z,18.52
2018-03-03T00:11:59.620Z,20.00
2018-03-03T00:14:26.450Z,23.55
2018-03-03T00:16:53.671Z,20.52
2018-03-03T00:19:20.528Z,21.17
2018-03-03T00:21:47.655Z,20.62
2018-03-03T00:24:14.592Z,20.25
2018-03-03T00:26:41.456Z,21.77
2018-03-03T00:29:08.295Z,23.35
2018-03-03T00:31:35.164Z,20.75
2018-03-03T00:34:02.022Z,19.33
2018-03-03T00:36:29.103Z,18.95
2018-03-03T00:38:56.190Z,21.50
2018-03-03T00:41:23.328Z,20.20
2018-03-03T00:43:50.186Z,20.15
2018-03-03T00:46:17.292Z,22.62
2018-03-03T00:48:44.116Z,21.73
2018-03-03T00:51:11.206Z,19.60
2018-03-03T00:53:38.367Z,20.70
2018-03-03T00:56:05.512Z,19.05
2018-03-03T00:58:32.372Z,22.87
2018-03-03T01:00:59.243Z,19.77
2018-03-03T01:03:26.054Z,19.70
2018-03-03T01:05:52.927Z,21.07
2018-03-03T01:08:19.860Z,21.83
2018-03-03T01:10:46.661Z,21.25
2018-03-03T01:13:13.533Z,19.42
2018-03-03T01:15:40.399Z,21.90
2018-03-03T01:18:07.248Z,18.12
2018-03-03T01:20:34.095Z,20.83
2018-03-03T01:23:00.938Z,21.08
2018-03-03T01:25:27.774Z,19.42
2018-03-03T01:27:54.631Z,19.30
2018-03-03T01:30:21.475Z,20.77
2018-03-03T01:32:48.368Z,21.15
2018-03-03T01:35:15.216Z,19.83
2018-03-03T01:37:42.360Z,19.58
2018-03-03T01:40:09.174Z,20.58
2018-03-03T01:42:35.990Z,20.25
2018-03-03T01:45:03.059Z,20.70
2018-03-03T01:47:29.878Z,19.80
2018-03-03T01:49:56.770Z,19.90
2018-03-03T01:52:23.936Z,18.62
2018-03-03T01:54:50.770Z,20.53
2018-03-03T01:57:17.594Z,16.53
2018-03-03T01:59:44.767Z,18.93
2018-03-03T02:02:11.624Z,18.80
2018-03-03T02:04:38.462Z,19.95
2018-03-03T02:07:05.604Z,22.00
2018-03-03T02:09:32.452Z,22.58
2018-03-03T02:11:59.286Z,18.67
2018-03-03T02:14:26.160Z,22.10
2018-03-03T02:16:52.986Z,19.23
2018-03-03T02:19:20.068Z,20.70
2018-03-03T02:21:46.956Z,20.50
2018-03-03T02:24:13.786Z,22.35
2018-03-03T02:26:40.625Z,20.48
2018-03-03T02:29:07.710Z,22.85
2018-03-03T02:31:34.560Z,21.35
2018-03-03T02:34:01.697Z,22.90
2018-03-03T02:36:28.548Z,21.52
2018-03-03T02:38:55.406Z,19.00
2018-03-03T02:41:22.250Z,19.10
2018-03-03T02:43:49.379Z,21.35
2018-03-03T02:46:16.244Z,18.27
2018-03-03T02:48:43.371Z,21.50
2018-03-03T02:51:10.205Z,22.70
2018-03-03T02:53:37.360Z,21.08
2018-03-03T02:56:04.187Z,23.25
2018-03-03T02:58:31.006Z,20.02
2018-03-03T03:00:58.095Z,20.42
2018-03-03T03:03:25.144Z,21.20
2018-03-03T03:05:52.299Z,20.30
2018-03-03T03:08:19.165Z,20.58
2018-03-03T03:10:46.287Z,22.58
2018-03-03T03:13:13.157Z,21.10
2018-03-03T03:15:40.278Z,21.85
2018-03-03T03:18:07.164Z,20.90
2018-03-03T03:20:33.987Z,21.83
2018-03-03T03:23:00.847Z,21.77
2018-03-03T03:25:27.962Z,19.45
2018-03-03T03:27:54.832Z,20.80
2018-03-03T03:30:21.668Z,20.47
2018-03-03T03:32:48.516Z,22.60
2018-03-03T03:35:15.369Z,19.08
2018-03-03T03:37:42.230Z,26.17
2018-03-03T03:40:09.341Z,22.83
2018-03-03T03:42:36.215Z,20.88
2018-03-03T03:45:03.071Z,19.98
2018-03-03T03:47:29.879Z,21.10
2018-03-03T03:49:56.744Z,24.42
2018-03-03T03:52:24.204Z,24.27
2018-03-03T03:54:51.051Z,20.98
2018-03-03T03:57:17.924Z,23.05
2018-03-03T03:59:44.769Z,21.90
2018-03-03T04:02:11.622Z,24.80
2018-03-03T04:04:38.482Z,24.02
2018-03-03T04:07:05.629Z,25.30
2018-03-03T04:09:32.439Z,22.40
2018-03-03T04:11:59.294Z,24.37
2018-03-03T04:14:26.163Z,22.40
2018-03-03T04:16:53.582Z,22.37
2018-03-03T04:19:20.770Z,23.92
2018-03-03T04:21:47.621Z,22.75
2018-03-03T04:24:14.472Z,23.30
2018-03-03T04:26:41.313Z,26.33
2018-03-03T04:29:08.175Z,24.00
2018-03-03T04:31:35.032Z,23.63
2018-03-03T04:34:01.868Z,26.85
2018-03-03T04:36:28.682Z,20.80
2018-03-03T04:38:55.560Z,26.87
2018-03-03T04:41:22.375Z,30.23
2018-03-03T04:43:49.280Z,23.20
2018-03-03T04:46:16.136Z,22.75
2018-03-03T04:48:42.992Z,26.55
2018-03-03T04:51:09.839Z,25.02
2018-03-03T04:53:36.679Z,25.48
2018-03-03T04:56:03.556Z,25.90
2018-03-03T04:58:30.372Z,26.35
2018-03-03T05:00:57.518Z,23.30
2018-03-03T05:03:24.327Z,23.77
2018-03-03T05:05:51.504Z,24.60
2018-03-03T05:08:18.656Z,25.40
2018-03-03T05:10:45.531Z,24.75
2018-03-03T05:13:12.643Z,23.17
2018-03-03T05:15:39.812Z,23.75
2018-03-03T05:18:06.949Z,27.13
2018-03-03T05:20:33.812Z,25.98
2018-03-03T05:23:00.647Z,21.58
2018-03-03T05:25:27.523Z,27.65
2018-03-03T05:27:54.623Z,24.23
2018-03-03T05:30:21.489Z,24.57
2018-03-03T05:32:48.668Z,22.30
2018-03-03T05:35:15.541Z,25.75
2018-03-03T05:37:42.725Z,24.80
2018-03-03T05:40:09.864Z,22.87
2018-03-03T05:42:36.725Z,24.48
2018-03-03T05:45:03.568Z,23.73
2018-03-03T05:47:30.704Z,25.98
2018-03-03T05:49:57.519Z,24.05
2018-03-03T05:52:24.595Z,27.95
2018-03-03T05:54:51.647Z,25.25
2018-03-03T05:57:18.474Z,25.02
2018-03-03T05:59:45.314Z,23.00
2018-03-03T06:02:12.158Z,24.02
2018-03-03T06:04:39.496Z,25.50
2018-03-03T06:07:06.344Z,27.37
2018-03-03T06:09:33.200Z,26.60
2018-03-03T06:12:00.016Z,25.37
2018-03-03T06:14:27.086Z,24.95
2018-03-03T06:16:54.254Z,27.42
2018-03-03T06:19:21.078Z,24.73
2018-03-03T06:21:47.932Z,23.25
2018-03-03T06:24:14.752Z,28.05
2018-03-03T06:26:41.591Z,22.92
2018-03-03T06:29:08.670Z,26.87
2018-03-03T06:31:35.540Z,26.37
2018-03-03T06:34:02.411Z,24.37
2018-03-03T06:36:29.506Z,24.12
2018-03-03T06:38:56.664Z,22.83
2018-03-03T06:41:23.526Z,23.25
2018-03-03T06:43:50.377Z,23.95
2018-03-03T06:46:17.217Z,21.73
2018-03-03T06:48:44.087Z,23.95
2018-03-03T06:51:10.936Z,23.00
2018-03-03T06:53:38.030Z,26.50
2018-03-03T06:56:05.075Z,24.23
2018-03-03T06:58:31.989Z,28.35
2018-03-03T07:00:58.842Z,22.08
2018-03-03T07:03:26.028Z,23.50
2018-03-03T07:05:52.868Z,26.50
2018-03-03T07:08:20.012Z,25.02
2018-03-03T07:10:46.863Z,23.60
2018-03-03T07:13:14.007Z,24.05
2018-03-03T07:15:40.860Z,25.90
2018-03-03T07:18:07.999Z,24.17
2018-03-03T07:20:35.148Z,25.00
2018-03-03T07:23:02.294Z,25.48
2018-03-03T07:25:29.442Z,23.13
2018-03-03T07:27:56.528Z,25.25
2018-03-03T07:30:23.648Z,25.20
2018-03-03T07:32:50.500Z,22.80
2018-03-03T07:35:17.343Z,22.77
2018-03-03T07:37:44.155Z,21.77
2018-03-03T07:40:11.012Z,25.25
2018-03-03T07:42:37.835Z,22.65
2018-03-03T07:45:04.700Z,26.95
2018-03-03T07:47:31.567Z,24.27
2018-03-03T07:49:58.704Z,25.70
2018-03-03T07:52:25.538Z,21.35
2018-03-03T07:54:52.400Z,23.80
2018-03-03T07:57:19.220Z,25.30
2018-03-03T07:59:46.047Z,24.85
2018-03-03T08:02:12.866Z,28.05
2018-03-03T08:04:40.071Z,25.42
2018-03-03T08:07:07.452Z,24.90
2018-03-03T08:09:34.327Z,27.08
2018-03-03T08:12:01.192Z,23.10
2018-03-03T08:14:28.051Z,23.20
2018-03-03T08:16:55.198Z,24.77
2018-03-03T08:19:22.055Z,25.58
2018-03-03T08:21:48.928Z,21.95
2018-03-03T08:24:15.786Z,25.62
2018-03-03T08:26:42.989Z,25.15
2018-03-03T08:29:10.136Z,26.00
2018-03-03T08:31:36.980Z,26.25
2018-03-03T08:34:03.823Z,22.48
2018-03-03T08:36:30.651Z,25.23
2018-03-03T08:38:57.470Z,22.48
2018-03-03T08:41:24.314Z,24.63
2018-03-03T08:43:51.200Z,23.48
2018-03-03T08:46:18.072Z,23.05
2018-03-03T08:48:44.894Z,22.35
2018-03-03T08:51:11.762Z,22.30
2018-03-03T08:53:38.582Z,21.90
2018-03-03T08:56:05.724Z,24.60
2018-03-03T08:58:32.600Z,23.55
2018-03-03T09:00:59.493Z,25.12
2018-03-03T09:03:26.655Z,22.40
2018-03-03T09:05:53.802Z,19.70
2018-03-03T09:08:20.654Z,20.60
2018-03-03T09:10:48.194Z,22.07
2018-03-03T09:13:15.360Z,24.30
2018-03-03T09:15:42.280Z,20.40
2018-03-03T09:18:09.456Z,26.12
2018-03-03T09:20:36.608Z,21.83
2018-03-03T09:23:03.752Z,22.98
2018-03-03T09:25:30.586Z,28.40
2018-03-03T09:27:57.643Z,21.20
2018-03-03T09:30:24.508Z,22.73
2018-03-03T09:32:51.747Z,21.52
2018-03-03T09:35:18.896Z,20.55
2018-03-03T09:37:45.706Z,24.40
2018-03-03T09:40:12.784Z,26.55
2018-03-03T09:42:39.624Z,24.47
2018-03-03T09:45:06.446Z,23.73
2018-03-03T09:47:33.514Z,23.17
2018-03-03T09:50:00.382Z,24.30
2018-03-03T09:52:27.512Z,21.15
2018-03-03T09:54:54.346Z,21.87
2018-03-03T09:57:21.212Z,20.88
2018-03-03T09:59:48.055Z,22.25
2018-03-03T10:02:15.569Z,20.08
2018-03-03T10:04:42.519Z,21.48
2018-03-03T10:07:09.616Z,21.10
2018-03-03T10:09:36.435Z,22.42
2018-03-03T10:12:03.293Z,19.30
2018-03-03T10:14:30.110Z,24.58
2018-03-03T10:16:56.967Z,21.15
2018-03-03T10:19:23.784Z,22.73
2018-03-03T10:21:50.640Z,20.40
2018-03-03T10:24:17.485Z,25.10
2018-03-03T10:26:44.350Z,22.87
2018-03-03T10:29:11.455Z,25.17
2018-03-03T10:31:38.535Z,22.90
2018-03-03T10:34:05.683Z,23.50
2018-03-03T10:36:32.834Z,23.70
2018-03-03T10:38:59.998Z,27.15
2018-03-03T10:41:26.887Z,27.75
2018-03-03T10:43:53.984Z,26.25
2018-03-03T10:46:20.815Z,24.55
2018-03-03T10:48:47.631Z,23.90
2018-03-03T10:51:14.492Z,25.17
2018-03-03T10:53:41.554Z,21.48
2018-03-03T10:56:08.706Z,22.67
2018-03-03T10:58:35.583Z,24.77
2018-03-03T11:01:02.704Z,23.35
2018-03-03T11:03:29.552Z,21.52
2018-03-03T11:05:56.383Z,21.52
2018-03-03T11:08:23.241Z,20.65
2018-03-03T11:10:50.070Z,23.30
2018-03-03T11:13:16.897Z,21.60
2018-03-03T11:15:43.772Z,23.67
2018-03-03T11:18:10.587Z,23.00
2018-03-03T11:20:37.423Z,22.52
2018-03-03T11:23:04.600Z,26.30
2018-03-03T11:25:31.410Z,21.52
2018-03-03T11:27:58.283Z,22.95
2018-03-03T11:30:25.129Z,22.60
2018-03-03T11:32:51.992Z,22.40
2018-03-03T11:35:18.853Z,22.85
2018-03-03T11:37:45.975Z,25.60
2018-03-03T11:40:12.820Z,22.05
2018-03-03T11:42:39.960Z,21.48
2018-03-03T11:45:06.795Z,23.63
2018-03-03T11:47:33.618Z,23.20
2018-03-03T11:50:00.697Z,27.40
2018-03-03T11:52:27.539Z,22.23
2018-03-03T11:54:54.690Z,24.83
2018-03-03T11:57:21.515Z,24.92
2018-03-03T11:59:48.360Z,22.47
2018-03-03T12:02:15.222Z,22.77
2018-03-03T12:04:42.362Z,22.30
2018-03-03T12:07:09.252Z,26.12
2018-03-03T12:09:36.104Z,25.25
2018-03-03T12:12:02.965Z,25.53
2018-03-03T12:14:29.831Z,24.33
2018-03-03T12:16:57.034Z,25.55
2018-03-03T12:19:23.954Z,25.90
2018-03-03T12:21:51.090Z,25.75
2018-03-03T12:24:17.929Z,25.52
2018-03-03T12:26:44.799Z,26.17
2018-03-03T12:29:11.611Z,25.92
2018-03-03T12:31:38.467Z,24.12
2018-03-03T12:34:05.612Z,24.30
2018-03-03T12:36:32.475Z,25.10
2018-03-03T12:38:59.286Z,25.37
2018-03-03T12:41:26.148Z,24.70
2018-03-03T12:43:53.036Z,26.00
2018-03-03T12:46:20.134Z,25.98
2018-03-03T12:48:47.283Z,25.67
2018-03-03T12:51:14.137Z,27.23
2018-03-03T12:53:41.004Z,26.45
2018-03-03T12:56:07.856Z,26.25
2018-03-03T12:58:34.778Z,25.02
2018-03-03T13:01:01.511Z,25.27
2018-03-03T13:03:28.408Z,24.15
2018-03-03T13:05:55.238Z,28.45
2018-03-03T13:08:22.335Z,27.58
2018-03-03T13:10:49.147Z,26.45
2018-03-03T13:13:16.028Z,23.90
2018-03-03T13:15:42.872Z,22.92
2018-03-03T13:18:09.756Z,23.30
2018-03-03T13:20:36.604Z,24.10
2018-03-03T13:23:03.441Z,25.43
2018-03-03T13:25:30.267Z,24.27
2018-03-03T13:27:57.107Z,21.98
2018-03-03T13:30:24.346Z,21.65
2018-03-03T13:32:51.224Z,22.35
2018-03-03T13:35:18.042Z,22.45
2018-03-03T13:37:45.181Z,21.37
2018-03-03T13:40:12.263Z,22.33
2018-03-03T13:42:39.372Z,22.27
2018-03-03T13:45:06.183Z,23.75
2018-03-03T13:47:33.044Z,23.50
2018-03-03T13:49:59.897Z,26.67
2018-03-03T13:52:27.058Z,21.17
2018-03-03T13:54:53.874Z,23.15
2018-03-03T13:57:20.809Z,21.00
2018-03-03T13:59:47.634Z,22.37
2018-03-03T14:02:14.496Z,23.73
2018-03-03T14:04:41.334Z,20.88
2018-03-03T14:07:08.419Z,22.00
2018-03-03T14:09:35.263Z,22.87
2018-03-03T14:12:02.132Z,21.55
2018-03-03T14:14:28.981Z,23.15
2018-03-03T14:16:55.835Z,23.00
2018-03-03T14:19:22.675Z,20.27
2018-03-03T14:21:49.779Z,22.73
2018-03-03T14:24:16.619Z,24.30
2018-03-03T14:26:43.465Z,22.60
2018-03-03T14:29:10.332Z,23.10
2018-03-03T14:31:37.180Z,23.20
2018-03-03T14:34:04.308Z,22.10
2018-03-03T14:36:31.456Z,21.12
2018-03-03T14:38:58.619Z,21.77
2018-03-03T14:41:25.435Z,23.08
2018-03-03T14:43:52.259Z,21.87
2018-03-03T14:46:19.082Z,21.37
2018-03-03T14:48:46.292Z,22.40
2018-03-03T14:51:13.107Z,21.62
2018-03-03T14:53:39.976Z,22.40
2018-03-03T14:56:06.829Z,23.12
2018-03-03T14:58:33.707Z,22.17
2018-03-03T15:01:00.691Z,23.65
2018-03-03T15:03:27.632Z,21.90
2018-03-03T15:05:54.620Z,22.08
2018-03-03T15:08:21.526Z,18.48
2018-03-03T15:10:48.709Z,20.20
2018-03-03T15:13:15.855Z,17.47
2018-03-03T15:15:42.995Z,22.10
2018-03-03T15:18:09.873Z,20.33
2018-03-03T15:20:36.740Z,17.12
2018-03-03T15:23:03.570Z,19.60
2018-03-03T15:25:30.417Z,17.15
2018-03-03T15:27:57.516Z,18.48
2018-03-03T15:30:24.384Z,18.77
2018-03-03T15:32:51.253Z,17.37
2018-03-03T15:35:18.361Z,17.20
2018-03-03T15:37:45.217Z,21.48
2018-03-03T15:40:12.103Z,21.05
2018-03-03T15:42:38.981Z,19.73
2018-03-03T15:45:05.895Z,18.87
2018-03-03T15:47:32.749Z,21.70
2018-03-03T15:49:59.598Z,24.83
2018-03-03T15:52:26.460Z,22.40
2018-03-03T15:54:53.611Z,18.85
2018-03-03T15:57:20.439Z,18.45
2018-03-03T15:59:47.308Z,20.08
2018-03-03T16:02:14.452Z,17.80
2018-03-03T16:04:41.313Z,19.52
2018-03-03T16:07:08.135Z,21.17
2018-03-03T16:09:35.013Z,22.50
2018-03-03T16:12:01.873Z,20.58
2018-03-03T16:14:29.076Z,19.67
2018-03-03T16:16:55.926Z,21.83
2018-03-03T16:19:23.074Z,21.20
2018-03-03T16:21:49.910Z,22.95
2018-03-03T16:24:16.794Z,21.70
2018-03-03T16:26:43.595Z,24.30
2018-03-03T16:29:10.430Z,22.00
2018-03-03T16:31:37.294Z,23.77
2018-03-03T16:34:04.127Z,22.62
2018-03-03T16:36:31.000Z,25.62
2018-03-03T16:38:57.866Z,24.63
2018-03-03T16:41:24.964Z,22.67
2018-03-03T16:43:51.825Z,25.65
2018-03-03T16:46:18.677Z,21.83
2018-03-03T16:48:45.905Z,28.62
2018-03-03T16:51:12.756Z,23.10
2018-03-03T16:53:39.579Z,25.30
2018-03-03T16:56:06.425Z,22.53
2018-03-03T16:58:33.297Z,32.63
2018-03-03T17:01:00.422Z,23.67
2018-03-03T17:03:27.591Z,22.25
2018-03-03T17:05:54.431Z,24.30
2018-03-03T17:08:21.277Z,22.67
2018-03-03T17:10:48.119Z,28.70
2018-03-03T17:13:15.255Z,25.42
2018-03-03T17:15:42.118Z,23.73
2018-03-03T17:18:08.951Z,26.50
2018-03-03T17:20:35.796Z,25.10
2018-03-03T17:23:02.940Z,24.10
2018-03-03T17:25:30.083Z,24.35
2018-03-03T17:27:56.949Z,24.02
2018-03-03T17:30:23.825Z,24.52
2018-03-03T17:32:50.676Z,27.10
2018-03-03T17:35:17.872Z,26.12
2018-03-03T17:37:44.720Z,24.60
2018-03-03T17:40:11.579Z,29.87
2018-03-03T17:42:38.423Z,24.23
2018-03-03T17:45:05.315Z,25.53
2018-03-03T17:47:32.150Z,27.13
2018-03-03T17:49:58.984Z,27.73
2018-03-03T17:52:26.458Z,25.97
2018-03-03T17:54:53.403Z,27.92
2018-03-03T17:57:20.460Z,30.12
2018-03-03T17:59:47.396Z,29.20
2018-03-03T18:02:14.253Z,29.58
2018-03-03T18:04:41.112Z,27.73
2018-03-03T18:07:07.932Z,29.87
2018-03-03T18:09:34.768Z,27.15
2018-03-03T18:12:01.615Z,32.53
2018-03-03T18:14:28.791Z,30.20
2018-03-03T18:16:55.619Z,25.75
2018-03-03T18:19:33.237Z,29.00
2018-03-03T18:22:00.125Z,28.52
2018-03-03T18:24:33.263Z,25.02
2018-03-03T18:27:00.120Z,24.65
2018-03-03T18:29:26.982Z,27.13
2018-03-03T18:31:54.124Z,25.23
2018-03-03T18:34:21.253Z,29.90
2018-03-03T18:36:48.409Z,27.00
2018-03-03T18:39:15.561Z,27.02
2018-03-03T18:41:42.425Z,22.97
2018-03-03T18:44:09.286Z,25.83
2018-03-03T18:46:36.497Z,26.08
2018-03-03T18:49:03.343Z,27.30
2018-03-03T18:51:30.183Z,26.70
2018-03-03T18:53:57.056Z,25.65
2018-03-03T18:56:23.915Z,26.35
2018-03-03T18:58:51.015Z,24.87
2018-03-03T19:01:18.173Z,23.07
2018-03-03T19:03:45.321Z,23.35
2018-03-03T19:06:12.159Z,21.85
2018-03-03T19:08:39.306Z,25.80
2018-03-03T19:11:06.172Z,26.23
2018-03-03T19:13:33.025Z,23.27
2018-03-03T19:15:59.882Z,23.07
2018-03-03T19:18:26.704Z,21.53
2018-03-03T19:20:53.535Z,22.93
2018-03-03T19:23:20.680Z,19.20
2018-03-03T19:25:47.828Z,22.02
2018-03-03T19:28:14.706Z,24.65
2018-03-03T19:30:41.547Z,23.90
2018-03-03T19:33:08.363Z,21.30
2018-03-03T19:35:35.278Z,22.80
2018-03-03T19:38:02.451Z,19.05
2018-03-03T19:40:29.608Z,22.70
2018-03-03T19:42:56.440Z,20.17
2018-03-03T19:45:23.595Z,19.90
2018-03-03T19:47:50.852Z,22.75
2018-03-03T19:50:17.716Z,20.90
2018-03-03T19:52:44.574Z,21.15
2018-03-03T19:55:11.688Z,20.88
2018-03-03T19:57:38.839Z,20.35
2018-03-03T20:00:05.702Z,20.40
2018-03-03T20:02:32.568Z,20.52
2018-03-03T20:04:59.438Z,21.12
2018-03-03T20:07:26.623Z,18.37
2018-03-03T20:09:53.486Z,19.10
2018-03-03T20:12:20.353Z,23.30
2018-03-03T20:14:47.217Z,18.05
2018-03-03T20:17:14.089Z,19.87
2018-03-03T20:19:40.904Z,20.00
2018-03-03T20:22:07.767Z,20.92
2018-03-03T20:24:34.623Z,20.85
2018-03-03T20:27:01.505Z,18.15
2018-03-03T20:29:28.615Z,20.07
2018-03-03T20:31:55.455Z,19.23
2018-03-03T20:34:22.308Z,23.98
2018-03-03T20:36:49.183Z,19.98
2018-03-03T20:39:16.045Z,22.27
2018-03-03T20:41:43.251Z,19.67
2018-03-03T20:44:10.396Z,20.42
2018-03-03T20:46:37.229Z,24.37
2018-03-03T20:49:04.049Z,22.13
2018-03-03T20:51:30.913Z,20.02
2018-03-03T20:53:57.727Z,20.65
2018-03-03T20:56:24.715Z,20.92
2018-03-03T20:58:51.563Z,19.58
2018-03-03T21:01:18.709Z,21.33
2018-03-03T21:03:45.556Z,20.50
2018-03-03T21:06:12.701Z,21.08
2018-03-03T21:08:39.551Z,18.43
2018-03-03T21:11:06.387Z,20.30
2018-03-03T21:13:33.247Z,18.08
2018-03-03T21:16:00.117Z,19.73
2018-03-03T21:18:26.939Z,20.60
2018-03-03T21:20:53.769Z,20.95
2018-03-03T21:23:20.631Z,19.80
2018-03-03T21:25:47.747Z,22.00
2018-03-03T21:28:14.616Z,22.62
2018-03-03T21:30:41.494Z,20.30
2018-03-03T21:33:08.433Z,24.87
2018-03-03T21:35:35.305Z,20.83
2018-03-03T21:38:02.165Z,21.03
2018-03-03T21:40:29.020Z,20.52
2018-03-03T21:42:55.842Z,20.37
2018-03-03T21:45:23.012Z,23.98
2018-03-03T21:47:49.863Z,18.50
2018-03-03T21:50:16.684Z,20.75
2018-03-03T21:52:43.564Z,23.17
2018-03-03T21:55:10.427Z,20.20
2018-03-03T21:57:37.267Z,19.87
2018-03-03T22:00:04.376Z,22.15
2018-03-03T22:02:31.308Z,20.70
2018-03-03T22:04:58.139Z,20.60
2018-03-03T22:07:24.997Z,18.10
2018-03-03T22:09:51.954Z,18.67
2018-03-03T22:12:19.053Z,20.10
2018-03-03T22:14:46.149Z,20.58
2018-03-03T22:17:13.305Z,22.13
2018-03-03T22:19:40.152Z,20.58
2018-03-03T22:22:07.016Z,20.85
2018-03-03T22:24:33.883Z,21.70
2018-03-03T22:27:01.137Z,20.02
2018-03-03T22:29:27.988Z,19.80
2018-03-03T22:31:54.853Z,20.73
2018-03-03T22:34:21.724Z,20.07
2018-03-03T22:36:48.611Z,19.60
2018-03-03T22:39:15.479Z,23.47
2018-03-03T22:41:42.651Z,20.30
2018-03-03T22:44:09.495Z,19.62
2018-03-03T22:46:36.323Z,20.08
2018-03-03T22:49:03.201Z,20.60
2018-03-03T22:51:30.077Z,20.20
2018-03-03T22:53:56.960Z,21.75
2018-03-03T22:56:24.723Z,19.17
2018-03-03T22:58:51.583Z,20.42
2018-03-03T23:01:18.415Z,19.65
2018-03-03T23:03:45.580Z,22.35
2018-03-03T23:06:12.729Z,19.27
2018-03-03T23:08:39.871Z,20.35
2018-03-03T23:11:06.753Z,22.67
2018-03-03T23:13:33.636Z,19.42
2018-03-03T23:16:00.463Z,17.62
2018-03-03T23:18:27.551Z,18.90
2018-03-03T23:20:54.383Z,19.77
2018-03-03T23:23:21.551Z,20.15
2018-03-03T23:25:48.785Z,20.80
2018-03-03T23:28:15.675Z,21.95
2018-03-03T23:30:42.801Z,19.87
2018-03-03T23:33:09.950Z,19.65
2018-03-03T23:35:36.791Z,21.48
2018-03-03T23:38:03.633Z,19.67
2018-03-03T23:40:30.497Z,22.40
2018-03-03T23:42:57.362Z,22.10
2018-03-03T23:45:24.463Z,22.60
2018-03-03T23:47:51.615Z,19.48
2018-03-03T23:50:18.448Z,20.02
2018-03-03T23:52:45.340Z,19.95
2018-03-03T23:55:12.179Z,19.80
2018-03-03T23:57:39.040Z,20.50
